sensor_id;sensor_type;location;lat;lon;timestamp;temperature;humidity
11454;DHT22;5783;55.174;61.310;2023-07-13T00:00:58;27.00;55.50
11454;DHT22;5783;55.174;61.310;2023-07-13T00:03:26;27.10;55.40
11454;DHT22;5783;55.174;61.310;2023-07-13T00:08:45;27.10;55.50
11454;DHT22;5783;55.174;61.310;2023-07-13T00:11:15;27.00;55.10
11454;DHT22;5783;55.174;61.310;2023-07-13T00:13:43;27.00;54.90
11454;DHT22;5783;55.174;61.310;2023-07-13T00:16:12;27.00;54.90
11454;DHT22;5783;55.174;61.310;2023-07-13T00:18:40;27.00;54.70
11454;DHT22;5783;55.174;61.310;2023-07-13T00:21:08;27.00;54.60
11454;DHT22;5783;55.174;61.310;2023-07-13T00:23:37;27.00;54.30
11454;DHT22;5783;55.174;61.310;2023-07-13T00:26:07;27.00;54.20
11454;DHT22;5783;55.174;61.310;2023-07-13T00:28:36;27.00;54.10
11454;DHT22;5783;55.174;61.310;2023-07-13T00:31:05;27.00;54.10
11454;DHT22;5783;55.174;61.310;2023-07-13T00:33:34;27.00;53.90
11454;DHT22;5783;55.174;61.310;2023-07-13T00:36:02;27.00;53.90
11454;DHT22;5783;55.174;61.310;2023-07-13T00:38:31;27.00;53.10
11454;DHT22;5783;55.174;61.310;2023-07-13T00:40:59;27.00;52.50
11454;DHT22;5783;55.174;61.310;2023-07-13T00:43:27;27.00;52.40
11454;DHT22;5783;55.174;61.310;2023-07-13T00:48:27;27.00;52.10
11454;DHT22;5783;55.174;61.310;2023-07-13T00:50:57;26.90;52.10
11454;DHT22;5783;55.174;61.310;2023-07-13T00:53:26;26.90;51.80
11454;DHT22;5783;55.174;61.310;2023-07-13T00:55:56;26.90;51.40
11454;DHT22;5783;55.174;61.310;2023-07-13T00:58:26;26.90;51.20
11454;DHT22;5783;55.174;61.310;2023-07-13T01:00:54;26.90;50.90
11454;DHT22;5783;55.174;61.310;2023-07-13T01:03:22;26.90;50.90
11454;DHT22;5783;55.174;61.310;2023-07-13T01:05:51;26.90;50.90
11454;DHT22;5783;55.174;61.310;2023-07-13T01:08:21;26.90;51.00
11454;DHT22;5783;55.174;61.310;2023-07-13T01:13:37;26.80;51.70
11454;DHT22;5783;55.174;61.310;2023-07-13T01:16:11;26.80;52.00
11454;DHT22;5783;55.174;61.310;2023-07-13T01:18:35;26.80;52.20
11454;DHT22;5783;55.174;61.310;2023-07-13T01:21:05;26.80;52.20
11454;DHT22;5783;55.174;61.310;2023-07-13T01:23:33;26.80;52.10
11454;DHT22;5783;55.174;61.310;2023-07-13T01:26:01;26.80;52.20
11454;DHT22;5783;55.174;61.310;2023-07-13T01:28:30;26.80;52.40
11454;DHT22;5783;55.174;61.310;2023-07-13T01:30:59;26.80;52.30
11454;DHT22;5783;55.174;61.310;2023-07-13T01:33:28;26.80;52.20
11454;DHT22;5783;55.174;61.310;2023-07-13T01:35:57;26.80;52.50
11454;DHT22;5783;55.174;61.310;2023-07-13T01:38:27;26.80;52.70
11454;DHT22;5783;55.174;61.310;2023-07-13T01:40:56;26.80;52.70
11454;DHT22;5783;55.174;61.310;2023-07-13T01:43:25;26.80;52.60
11454;DHT22;5783;55.174;61.310;2023-07-13T01:45:53;26.80;52.50
11454;DHT22;5783;55.174;61.310;2023-07-13T01:48:22;26.80;52.60
11454;DHT22;5783;55.174;61.310;2023-07-13T01:50:50;26.80;53.00
11454;DHT22;5783;55.174;61.310;2023-07-13T01:53:18;26.80;52.60
11454;DHT22;5783;55.174;61.310;2023-07-13T01:55:46;26.80;52.20
11454;DHT22;5783;55.174;61.310;2023-07-13T01:58:15;26.80;52.80
11454;DHT22;5783;55.174;61.310;2023-07-13T02:00:44;26.80;52.70
11454;DHT22;5783;55.174;61.310;2023-07-13T02:03:13;26.80;52.70
11454;DHT22;5783;55.174;61.310;2023-07-13T02:05:43;26.80;53.00
11454;DHT22;5783;55.174;61.310;2023-07-13T02:08:11;26.80;52.80
11454;DHT22;5783;55.174;61.310;2023-07-13T02:10:39;26.80;52.60
11454;DHT22;5783;55.174;61.310;2023-07-13T02:13:08;26.80;52.70
11454;DHT22;5783;55.174;61.310;2023-07-13T02:15:57;26.80;52.50
11454;DHT22;5783;55.174;61.310;2023-07-13T02:18:27;26.80;52.50
11454;DHT22;5783;55.174;61.310;2023-07-13T02:20:56;26.80;52.20
11454;DHT22;5783;55.174;61.310;2023-07-13T02:23:24;26.80;52.40
11454;DHT22;5783;55.174;61.310;2023-07-13T02:26:13;26.80;52.50
11454;DHT22;5783;55.174;61.310;2023-07-13T02:28:42;26.80;51.70
11454;DHT22;5783;55.174;61.310;2023-07-13T02:31:14;26.80;51.00
11454;DHT22;5783;55.174;61.310;2023-07-13T02:33:43;26.80;51.20
11454;DHT22;5783;55.174;61.310;2023-07-13T02:36:11;26.70;50.70
11454;DHT22;5783;55.174;61.310;2023-07-13T02:38:42;26.70;50.70
11454;DHT22;5783;55.174;61.310;2023-07-13T02:41:11;26.70;50.20
11454;DHT22;5783;55.174;61.310;2023-07-13T02:43:41;26.70;50.20
11454;DHT22;5783;55.174;61.310;2023-07-13T02:46:09;26.70;50.20
11454;DHT22;5783;55.174;61.310;2023-07-13T02:48:38;26.70;49.60
11454;DHT22;5783;55.174;61.310;2023-07-13T02:51:07;26.70;50.00
11454;DHT22;5783;55.174;61.310;2023-07-13T02:53:35;26.70;49.90
11454;DHT22;5783;55.174;61.310;2023-07-13T02:56:05;26.70;49.60
11454;DHT22;5783;55.174;61.310;2023-07-13T02:58:35;26.70;49.50
11454;DHT22;5783;55.174;61.310;2023-07-13T03:01:24;26.70;50.40
11454;DHT22;5783;55.174;61.310;2023-07-13T03:03:53;26.70;50.70
11454;DHT22;5783;55.174;61.310;2023-07-13T03:06:23;26.70;50.80
11454;DHT22;5783;55.174;61.310;2023-07-13T03:08:52;26.70;50.90
11454;DHT22;5783;55.174;61.310;2023-07-13T03:11:21;26.70;50.90
11454;DHT22;5783;55.174;61.310;2023-07-13T03:13:49;26.70;51.00
11454;DHT22;5783;55.174;61.310;2023-07-13T03:16:19;26.70;50.90
11454;DHT22;5783;55.174;61.310;2023-07-13T03:18:48;26.70;50.70
11454;DHT22;5783;55.174;61.310;2023-07-13T03:21:17;26.70;50.50
11454;DHT22;5783;55.174;61.310;2023-07-13T03:23:46;26.70;50.80
11454;DHT22;5783;55.174;61.310;2023-07-13T03:26:18;26.70;50.60
11454;DHT22;5783;55.174;61.310;2023-07-13T03:28:48;26.70;50.30
11454;DHT22;5783;55.174;61.310;2023-07-13T03:34:05;26.70;50.10
11454;DHT22;5783;55.174;61.310;2023-07-13T03:36:34;26.70;50.30
11454;DHT22;5783;55.174;61.310;2023-07-13T03:39:04;26.70;50.10
11454;DHT22;5783;55.174;61.310;2023-07-13T03:41:35;26.70;50.10
11454;DHT22;5783;55.174;61.310;2023-07-13T03:44:04;26.70;50.10
11454;DHT22;5783;55.174;61.310;2023-07-13T03:46:33;26.70;50.30
11454;DHT22;5783;55.174;61.310;2023-07-13T03:49:04;26.70;49.90
11454;DHT22;5783;55.174;61.310;2023-07-13T03:51:34;26.70;50.10
11454;DHT22;5783;55.174;61.310;2023-07-13T03:54:03;26.70;49.80
11454;DHT22;5783;55.174;61.310;2023-07-13T03:56:33;26.70;49.80
11454;DHT22;5783;55.174;61.310;2023-07-13T03:59:02;26.70;49.60
11454;DHT22;5783;55.174;61.310;2023-07-13T04:01:32;26.70;49.60
11454;DHT22;5783;55.174;61.310;2023-07-13T04:04:01;26.70;49.40
11454;DHT22;5783;55.174;61.310;2023-07-13T04:06:31;26.70;49.40
11454;DHT22;5783;55.174;61.310;2023-07-13T04:09:02;26.70;49.20
11454;DHT22;5783;55.174;61.310;2023-07-13T04:11:33;26.70;48.60
11454;DHT22;5783;55.174;61.310;2023-07-13T04:14:04;26.70;48.00
11454;DHT22;5783;55.174;61.310;2023-07-13T04:16:33;26.70;48.10
11454;DHT22;5783;55.174;61.310;2023-07-13T04:19:03;26.60;48.20
11454;DHT22;5783;55.174;61.310;2023-07-13T04:21:33;26.60;48.10
11454;DHT22;5783;55.174;61.310;2023-07-13T04:24:02;26.60;47.80
11454;DHT22;5783;55.174;61.310;2023-07-13T04:26:32;26.60;48.30
11454;DHT22;5783;55.174;61.310;2023-07-13T04:29:03;26.60;47.80
11454;DHT22;5783;55.174;61.310;2023-07-13T04:31:32;26.60;46.90
11454;DHT22;5783;55.174;61.310;2023-07-13T04:34:01;26.60;46.90
11454;DHT22;5783;55.174;61.310;2023-07-13T04:36:31;26.60;46.30
11454;DHT22;5783;55.174;61.310;2023-07-13T04:39:01;26.60;46.00
11454;DHT22;5783;55.174;61.310;2023-07-13T04:41:31;26.60;46.40
11454;DHT22;5783;55.174;61.310;2023-07-13T04:44:00;26.60;46.80
11454;DHT22;5783;55.174;61.310;2023-07-13T04:46:29;26.60;47.00
11454;DHT22;5783;55.174;61.310;2023-07-13T04:48:58;26.60;47.20
11454;DHT22;5783;55.174;61.310;2023-07-13T04:51:29;26.60;46.80
11454;DHT22;5783;55.174;61.310;2023-07-13T04:53:58;26.60;47.40
11454;DHT22;5783;55.174;61.310;2023-07-13T04:56:28;26.60;47.20
11454;DHT22;5783;55.174;61.310;2023-07-13T04:58:57;26.60;45.50
11454;DHT22;5783;55.174;61.310;2023-07-13T05:01:26;26.50;46.30
11454;DHT22;5783;55.174;61.310;2023-07-13T05:03:54;26.40;46.10
11454;DHT22;5783;55.174;61.310;2023-07-13T05:06:25;26.40;44.20
11454;DHT22;5783;55.174;61.310;2023-07-13T05:08:55;26.40;43.20
11454;DHT22;5783;55.174;61.310;2023-07-13T05:11:24;26.40;42.80
11454;DHT22;5783;55.174;61.310;2023-07-13T05:13:53;26.40;42.70
11454;DHT22;5783;55.174;61.310;2023-07-13T05:16:23;26.40;42.50
11454;DHT22;5783;55.174;61.310;2023-07-13T05:18:52;26.40;42.60
11454;DHT22;5783;55.174;61.310;2023-07-13T05:21:21;26.40;42.50
11454;DHT22;5783;55.174;61.310;2023-07-13T05:23:50;26.40;42.40
11454;DHT22;5783;55.174;61.310;2023-07-13T05:26:19;26.40;42.30
11454;DHT22;5783;55.174;61.310;2023-07-13T05:28:49;26.30;42.40
11454;DHT22;5783;55.174;61.310;2023-07-13T05:31:18;26.30;42.50
11454;DHT22;5783;55.174;61.310;2023-07-13T05:33:46;26.30;42.70
11454;DHT22;5783;55.174;61.310;2023-07-13T05:36:15;26.30;42.60
11454;DHT22;5783;55.174;61.310;2023-07-13T05:38:44;26.30;42.50
11454;DHT22;5783;55.174;61.310;2023-07-13T05:41:13;26.30;42.40
11454;DHT22;5783;55.174;61.310;2023-07-13T05:43:42;26.20;42.40
11454;DHT22;5783;55.174;61.310;2023-07-13T05:46:12;26.20;42.50
11454;DHT22;5783;55.174;61.310;2023-07-13T05:48:41;26.20;42.40
11454;DHT22;5783;55.174;61.310;2023-07-13T05:51:10;26.20;42.30
11454;DHT22;5783;55.174;61.310;2023-07-13T05:53:39;26.20;42.50
11454;DHT22;5783;55.174;61.310;2023-07-13T05:56:08;26.20;42.50
11454;DHT22;5783;55.174;61.310;2023-07-13T05:58:38;26.20;42.30
11454;DHT22;5783;55.174;61.310;2023-07-13T06:01:29;26.20;42.20
11454;DHT22;5783;55.174;61.310;2023-07-13T06:03:59;26.20;42.10
11454;DHT22;5783;55.174;61.310;2023-07-13T06:06:28;26.10;42.10
11454;DHT22;5783;55.174;61.310;2023-07-13T06:08:57;26.10;42.10
11454;DHT22;5783;55.174;61.310;2023-07-13T06:11:27;26.10;41.90
11454;DHT22;5783;55.174;61.310;2023-07-13T06:13:56;26.10;41.80
11454;DHT22;5783;55.174;61.310;2023-07-13T06:16:26;26.10;41.70
11454;DHT22;5783;55.174;61.310;2023-07-13T06:18:55;26.10;41.60
11454;DHT22;5783;55.174;61.310;2023-07-13T06:21:24;26.10;41.30
11454;DHT22;5783;55.174;61.310;2023-07-13T06:23:53;26.10;40.90
11454;DHT22;5783;55.174;61.310;2023-07-13T06:26:22;26.10;41.00
11454;DHT22;5783;55.174;61.310;2023-07-13T06:28:52;26.10;41.00
11454;DHT22;5783;55.174;61.310;2023-07-13T06:31:21;26.10;41.20
11454;DHT22;5783;55.174;61.310;2023-07-13T06:33:50;26.10;41.10
11454;DHT22;5783;55.174;61.310;2023-07-13T06:36:19;26.10;41.20
11454;DHT22;5783;55.174;61.310;2023-07-13T06:38:49;26.10;41.40
11454;DHT22;5783;55.174;61.310;2023-07-13T06:41:18;26.10;41.30
11454;DHT22;5783;55.174;61.310;2023-07-13T06:43:49;26.10;41.40
11454;DHT22;5783;55.174;61.310;2023-07-13T06:46:18;26.10;41.30
11454;DHT22;5783;55.174;61.310;2023-07-13T06:48:47;26.10;41.30
11454;DHT22;5783;55.174;61.310;2023-07-13T06:51:17;26.10;41.50
11454;DHT22;5783;55.174;61.310;2023-07-13T06:53:46;26.10;41.50
11454;DHT22;5783;55.174;61.310;2023-07-13T06:56:16;26.00;41.70
11454;DHT22;5783;55.174;61.310;2023-07-13T06:58:45;26.00;41.80
11454;DHT22;5783;55.174;61.310;2023-07-13T07:01:15;26.00;42.40
11454;DHT22;5783;55.174;61.310;2023-07-13T07:03:44;26.00;41.50
11454;DHT22;5783;55.174;61.310;2023-07-13T07:06:16;26.00;41.20
11454;DHT22;5783;55.174;61.310;2023-07-13T07:08:46;26.00;40.90
11454;DHT22;5783;55.174;61.310;2023-07-13T07:11:35;26.00;41.50
11454;DHT22;5783;55.174;61.310;2023-07-13T07:14:04;26.00;41.20
11454;DHT22;5783;55.174;61.310;2023-07-13T07:16:34;26.00;40.90
11454;DHT22;5783;55.174;61.310;2023-07-13T07:19:03;26.00;40.80
11454;DHT22;5783;55.174;61.310;2023-07-13T07:21:32;26.00;40.70
11454;DHT22;5783;55.174;61.310;2023-07-13T07:24:01;26.00;40.30
11454;DHT22;5783;55.174;61.310;2023-07-13T07:26:31;26.00;40.70
11454;DHT22;5783;55.174;61.310;2023-07-13T07:29:00;26.00;40.30
11454;DHT22;5783;55.174;61.310;2023-07-13T07:31:29;26.00;39.70
11454;DHT22;5783;55.174;61.310;2023-07-13T07:33:58;26.00;39.80
11454;DHT22;5783;55.174;61.310;2023-07-13T07:36:28;26.00;39.40
11454;DHT22;5783;55.174;61.310;2023-07-13T07:38:57;26.10;40.10
11454;DHT22;5783;55.174;61.310;2023-07-13T07:41:26;26.10;40.30
11454;DHT22;5783;55.174;61.310;2023-07-13T07:43:55;26.10;40.60
11454;DHT22;5783;55.174;61.310;2023-07-13T07:46:24;26.10;39.70
11454;DHT22;5783;55.174;61.310;2023-07-13T07:48:55;26.10;38.90
11454;DHT22;5783;55.174;61.310;2023-07-13T07:51:24;26.10;39.10
11454;DHT22;5783;55.174;61.310;2023-07-13T07:53:53;26.10;39.30
11454;DHT22;5783;55.174;61.310;2023-07-13T07:56:22;26.10;39.20
11454;DHT22;5783;55.174;61.310;2023-07-13T07:58:52;26.10;39.30
11454;DHT22;5783;55.174;61.310;2023-07-13T08:01:21;26.10;39.40
11454;DHT22;5783;55.174;61.310;2023-07-13T08:03:50;26.10;39.40
11454;DHT22;5783;55.174;61.310;2023-07-13T08:06:19;26.10;39.00
11454;DHT22;5783;55.174;61.310;2023-07-13T08:08:49;26.10;38.50
11454;DHT22;5783;55.174;61.310;2023-07-13T08:11:20;26.10;38.30
11454;DHT22;5783;55.174;61.310;2023-07-13T08:13:50;26.20;37.90
11454;DHT22;5783;55.174;61.310;2023-07-13T08:16:19;26.20;37.60
11454;DHT22;5783;55.174;61.310;2023-07-13T08:18:49;26.20;37.50
11454;DHT22;5783;55.174;61.310;2023-07-13T08:21:18;26.20;37.40
11454;DHT22;5783;55.174;61.310;2023-07-13T08:23:48;26.20;37.30
11454;DHT22;5783;55.174;61.310;2023-07-13T08:26:17;26.20;37.70
11454;DHT22;5783;55.174;61.310;2023-07-13T08:28:46;26.20;36.70
11454;DHT22;5783;55.174;61.310;2023-07-13T08:31:16;26.20;37.40
11454;DHT22;5783;55.174;61.310;2023-07-13T08:33:45;26.30;36.50
11454;DHT22;5783;55.174;61.310;2023-07-13T08:36:14;26.30;36.30
11454;DHT22;5783;55.174;61.310;2023-07-13T08:41:34;26.30;37.00
11454;DHT22;5783;55.174;61.310;2023-07-13T08:44:05;26.30;37.60
11454;DHT22;5783;55.174;61.310;2023-07-13T08:46:37;26.30;37.70
11454;DHT22;5783;55.174;61.310;2023-07-13T08:49:27;26.30;37.70
11454;DHT22;5783;55.174;61.310;2023-07-13T08:52:33;26.30;37.90
11454;DHT22;5783;55.174;61.310;2023-07-13T08:54:50;26.30;38.00
11454;DHT22;5783;55.174;61.310;2023-07-13T08:57:23;26.30;37.50
11454;DHT22;5783;55.174;61.310;2023-07-13T08:59:53;26.30;37.50
11454;DHT22;5783;55.174;61.310;2023-07-13T09:05:52;26.30;37.00
11454;DHT22;5783;55.174;61.310;2023-07-13T09:08:44;26.20;36.90
11454;DHT22;5783;55.174;61.310;2023-07-13T09:16:54;26.20;38.30
11454;DHT22;5783;55.174;61.310;2023-07-13T09:19:26;26.20;39.00
11454;DHT22;5783;55.174;61.310;2023-07-13T09:21:57;26.30;38.90
11454;DHT22;5783;55.174;61.310;2023-07-13T09:32:54;26.30;39.20
11454;DHT22;5783;55.174;61.310;2023-07-13T09:35:28;26.30;39.20
11454;DHT22;5783;55.174;61.310;2023-07-13T09:38:18;26.40;39.10
11454;DHT22;5783;55.174;61.310;2023-07-13T09:46:52;26.30;41.90
11454;DHT22;5783;55.174;61.310;2023-07-13T09:49:18;26.20;41.90
11454;DHT22;5783;55.174;61.310;2023-07-13T09:51:50;26.20;42.30
11454;DHT22;5783;55.174;61.310;2023-07-13T09:54:23;26.20;40.40
11454;DHT22;5783;55.174;61.310;2023-07-13T09:57:13;26.20;42.80
11454;DHT22;5783;55.174;61.310;2023-07-13T10:00:03;26.20;42.60
11454;DHT22;5783;55.174;61.310;2023-07-13T10:02:36;26.20;41.30
11454;DHT22;5783;55.174;61.310;2023-07-13T10:05:11;26.10;42.90
11454;DHT22;5783;55.174;61.310;2023-07-13T10:17:05;25.90;39.10
11454;DHT22;5783;55.174;61.310;2023-07-13T10:19:22;25.80;41.80
11454;DHT22;5783;55.174;61.310;2023-07-13T10:24:43;25.80;45.70
11454;DHT22;5783;55.174;61.310;2023-07-13T10:27:33;25.80;43.10
11454;DHT22;5783;55.174;61.310;2023-07-13T10:38:18;25.40;38.80
11454;DHT22;5783;55.174;61.310;2023-07-13T10:41:07;25.40;40.50
11454;DHT22;5783;55.174;61.310;2023-07-13T10:46:28;25.20;39.00
11454;DHT22;5783;55.174;61.310;2023-07-13T10:49:00;25.10;39.10
11454;DHT22;5783;55.174;61.310;2023-07-13T10:51:31;25.10;39.10
11454;DHT22;5783;55.174;61.310;2023-07-13T10:54:21;25.10;39.10
11454;DHT22;5783;55.174;61.310;2023-07-13T10:56:53;25.00;38.90
11454;DHT22;5783;55.174;61.310;2023-07-13T10:59:43;25.00;38.70
11454;DHT22;5783;55.174;61.310;2023-07-13T11:02:34;25.00;38.80
11454;DHT22;5783;55.174;61.310;2023-07-13T11:08:32;24.90;38.60
11454;DHT22;5783;55.174;61.310;2023-07-13T11:11:31;24.80;38.60
11454;DHT22;5783;55.174;61.310;2023-07-13T11:14:31;24.70;38.60
11454;DHT22;5783;55.174;61.310;2023-07-13T11:22:13;24.60;38.40
11454;DHT22;5783;55.174;61.310;2023-07-13T11:25:06;24.50;44.50
11454;DHT22;5783;55.174;61.310;2023-07-13T11:30:31;24.50;38.00
11454;DHT22;5783;55.174;61.310;2023-07-13T11:33:52;24.40;38.00
11454;DHT22;5783;55.174;61.310;2023-07-13T11:36:12;24.40;38.20
11454;DHT22;5783;55.174;61.310;2023-07-13T11:44:20;24.20;38.30
11454;DHT22;5783;55.174;61.310;2023-07-13T11:46:52;24.20;38.40
11454;DHT22;5783;55.174;61.310;2023-07-13T11:49:24;24.20;38.50
11454;DHT22;5783;55.174;61.310;2023-07-13T11:51:54;24.20;38.50
11454;DHT22;5783;55.174;61.310;2023-07-13T11:54:27;24.20;38.70
11454;DHT22;5783;55.174;61.310;2023-07-13T11:59:46;24.10;62.20
11454;DHT22;5783;55.174;61.310;2023-07-13T12:02:18;24.10;40.30
11454;DHT22;5783;55.174;61.310;2023-07-13T12:04:50;24.10;38.90
11454;DHT22;5783;55.174;61.310;2023-07-13T12:07:20;24.00;38.80
11454;DHT22;5783;55.174;61.310;2023-07-13T12:09:49;24.00;38.80
11454;DHT22;5783;55.174;61.310;2023-07-13T12:12:20;24.00;38.70
11454;DHT22;5783;55.174;61.310;2023-07-13T12:15:11;24.00;39.00
11454;DHT22;5783;55.174;61.310;2023-07-13T12:17:41;23.90;39.30
11454;DHT22;5783;55.174;61.310;2023-07-13T12:20:33;23.90;39.30
11454;DHT22;5783;55.174;61.310;2023-07-13T12:23:01;23.90;39.10
11454;DHT22;5783;55.174;61.310;2023-07-13T12:25:31;23.90;40.30
11454;DHT22;5783;55.174;61.310;2023-07-13T12:28:02;24.00;41.70
11454;DHT22;5783;55.174;61.310;2023-07-13T12:30:33;24.20;42.20
11454;DHT22;5783;55.174;61.310;2023-07-13T12:35:54;24.50;42.80
11454;DHT22;5783;55.174;61.310;2023-07-13T12:38:45;24.70;43.30
11454;DHT22;5783;55.174;61.310;2023-07-13T12:41:15;24.80;43.20
11454;DHT22;5783;55.174;61.310;2023-07-13T12:43:45;24.90;43.00
11454;DHT22;5783;55.174;61.310;2023-07-13T12:46:35;25.00;43.20
11454;DHT22;5783;55.174;61.310;2023-07-13T12:49:06;25.10;43.40
11454;DHT22;5783;55.174;61.310;2023-07-13T12:51:37;25.10;43.50
11454;DHT22;5783;55.174;61.310;2023-07-13T12:56:59;25.30;43.40
11454;DHT22;5783;55.174;61.310;2023-07-13T12:59:31;25.30;43.40
11454;DHT22;5783;55.174;61.310;2023-07-13T13:02:08;25.40;43.40
11454;DHT22;5783;55.174;61.310;2023-07-13T13:04:33;25.40;43.50
11454;DHT22;5783;55.174;61.310;2023-07-13T13:07:05;25.50;43.40
11454;DHT22;5783;55.174;61.310;2023-07-13T13:09:35;25.50;43.10
11454;DHT22;5783;55.174;61.310;2023-07-13T13:12:05;25.60;43.00
11454;DHT22;5783;55.174;61.310;2023-07-13T13:14:34;25.70;43.00
11454;DHT22;5783;55.174;61.310;2023-07-13T13:17:08;25.70;42.80
11454;DHT22;5783;55.174;61.310;2023-07-13T13:19:35;25.70;42.50
11454;DHT22;5783;55.174;61.310;2023-07-13T13:22:05;25.80;42.20
11454;DHT22;5783;55.174;61.310;2023-07-13T13:24:34;25.80;41.70
11454;DHT22;5783;55.174;61.310;2023-07-13T13:27:03;25.80;41.60
11454;DHT22;5783;55.174;61.310;2023-07-13T13:29:39;25.90;41.70
11454;DHT22;5783;55.174;61.310;2023-07-13T13:32:08;25.90;41.20
11454;DHT22;5783;55.174;61.310;2023-07-13T13:34:36;25.90;40.70
11454;DHT22;5783;55.174;61.310;2023-07-13T13:39:55;25.90;40.70
11454;DHT22;5783;55.174;61.310;2023-07-13T13:42:24;26.00;40.70
11454;DHT22;5783;55.174;61.310;2023-07-13T13:44:58;26.00;40.70
11454;DHT22;5783;55.174;61.310;2023-07-13T13:50:38;26.10;41.20
11454;DHT22;5783;55.174;61.310;2023-07-13T13:53:10;26.10;41.00
11454;DHT22;5783;55.174;61.310;2023-07-13T13:55:41;26.10;40.80
11454;DHT22;5783;55.174;61.310;2023-07-13T13:58:11;26.10;41.00
11454;DHT22;5783;55.174;61.310;2023-07-13T14:00:40;26.10;41.00
11454;DHT22;5783;55.174;61.310;2023-07-13T14:06:01;26.20;41.30
11454;DHT22;5783;55.174;61.310;2023-07-13T14:08:30;26.20;41.40
11454;DHT22;5783;55.174;61.310;2023-07-13T14:10:59;26.30;42.00
11454;DHT22;5783;55.174;61.310;2023-07-13T14:13:28;26.30;41.60
11454;DHT22;5783;55.174;61.310;2023-07-13T14:15:58;26.20;42.20
11454;DHT22;5783;55.174;61.310;2023-07-13T14:18:29;26.30;41.90
11454;DHT22;5783;55.174;61.310;2023-07-13T14:20:58;26.40;41.90
11454;DHT22;5783;55.174;61.310;2023-07-13T14:23:27;26.40;42.20
11454;DHT22;5783;55.174;61.310;2023-07-13T14:25:56;26.40;41.50
11454;DHT22;5783;55.174;61.310;2023-07-13T14:28:27;26.40;41.90
11454;DHT22;5783;55.174;61.310;2023-07-13T14:30:56;26.50;41.30
11454;DHT22;5783;55.174;61.310;2023-07-13T14:33:25;26.50;41.70
11454;DHT22;5783;55.174;61.310;2023-07-13T14:35:55;26.50;41.40
11454;DHT22;5783;55.174;61.310;2023-07-13T14:38:24;26.50;40.60
11454;DHT22;5783;55.174;61.310;2023-07-13T14:40:54;26.50;40.50
11454;DHT22;5783;55.174;61.310;2023-07-13T14:43:22;26.60;41.20
11454;DHT22;5783;55.174;61.310;2023-07-13T14:45:52;26.60;41.00
11454;DHT22;5783;55.174;61.310;2023-07-13T14:48:23;26.60;40.80
11454;DHT22;5783;55.174;61.310;2023-07-13T14:50:55;26.60;40.20
11454;DHT22;5783;55.174;61.310;2023-07-13T14:53:44;26.60;40.20
11454;DHT22;5783;55.174;61.310;2023-07-13T14:56:13;26.60;40.90
11454;DHT22;5783;55.174;61.310;2023-07-13T14:58:43;26.60;40.40
11454;DHT22;5783;55.174;61.310;2023-07-13T15:01:13;26.70;40.80
11454;DHT22;5783;55.174;61.310;2023-07-13T15:03:44;26.70;42.10
11454;DHT22;5783;55.174;61.310;2023-07-13T15:06:14;26.70;42.10
11454;DHT22;5783;55.174;61.310;2023-07-13T15:08:44;26.70;41.00
11454;DHT22;5783;55.174;61.310;2023-07-13T15:11:16;26.70;41.10
11454;DHT22;5783;55.174;61.310;2023-07-13T15:13:46;26.70;42.20
11454;DHT22;5783;55.174;61.310;2023-07-13T15:16:15;26.70;43.30
11454;DHT22;5783;55.174;61.310;2023-07-13T15:18:44;26.80;43.40
11454;DHT22;5783;55.174;61.310;2023-07-13T15:21:14;26.80;43.40
11454;DHT22;5783;55.174;61.310;2023-07-13T15:23:42;26.80;44.30
11454;DHT22;5783;55.174;61.310;2023-07-13T15:26:11;26.60;41.20
11454;DHT22;5783;55.174;61.310;2023-07-13T15:29:00;26.40;40.30
11454;DHT22;5783;55.174;61.310;2023-07-13T15:31:29;26.20;39.90
11454;DHT22;5783;55.174;61.310;2023-07-13T15:33:59;26.00;39.60
11454;DHT22;5783;55.174;61.310;2023-07-13T15:36:29;25.80;39.50
11454;DHT22;5783;55.174;61.310;2023-07-13T15:38:59;25.60;39.50
11454;DHT22;5783;55.174;61.310;2023-07-13T15:41:29;25.50;39.60
11454;DHT22;5783;55.174;61.310;2023-07-13T15:43:59;25.30;39.80
11454;DHT22;5783;55.174;61.310;2023-07-13T15:46:30;25.30;40.00
11454;DHT22;5783;55.174;61.310;2023-07-13T15:48:59;25.20;40.10
11454;DHT22;5783;55.174;61.310;2023-07-13T15:51:30;25.10;40.20
11454;DHT22;5783;55.174;61.310;2023-07-13T15:54:02;25.10;40.20
11454;DHT22;5783;55.174;61.310;2023-07-13T15:56:36;25.00;40.30
11454;DHT22;5783;55.174;61.310;2023-07-13T15:59:10;24.90;40.50
11454;DHT22;5783;55.174;61.310;2023-07-13T16:01:41;24.80;40.60
11454;DHT22;5783;55.174;61.310;2023-07-13T16:04:11;24.70;40.70
11454;DHT22;5783;55.174;61.310;2023-07-13T16:06:41;24.70;41.20
11454;DHT22;5783;55.174;61.310;2023-07-13T16:12:01;24.90;43.60
11454;DHT22;5783;55.174;61.310;2023-07-13T16:14:30;25.10;44.50
11454;DHT22;5783;55.174;61.310;2023-07-13T16:16:59;25.30;45.20
11454;DHT22;5783;55.174;61.310;2023-07-13T16:19:29;25.40;45.30
11454;DHT22;5783;55.174;61.310;2023-07-13T16:21:58;25.50;45.40
11454;DHT22;5783;55.174;61.310;2023-07-13T16:24:29;25.70;44.60
11454;DHT22;5783;55.174;61.310;2023-07-13T16:26:59;25.70;45.60
11454;DHT22;5783;55.174;61.310;2023-07-13T16:29:30;25.80;46.00
11454;DHT22;5783;55.174;61.310;2023-07-13T16:32:19;25.90;46.10
11454;DHT22;5783;55.174;61.310;2023-07-13T16:34:48;25.90;46.20
11454;DHT22;5783;55.174;61.310;2023-07-13T16:37:21;26.00;46.40
11454;DHT22;5783;55.174;61.310;2023-07-13T16:39:53;26.00;46.20
11454;DHT22;5783;55.174;61.310;2023-07-13T16:42:25;26.10;46.20
11454;DHT22;5783;55.174;61.310;2023-07-13T16:44:54;26.10;46.30
11454;DHT22;5783;55.174;61.310;2023-07-13T16:47:25;26.10;46.30
11454;DHT22;5783;55.174;61.310;2023-07-13T16:49:54;26.10;46.20
11454;DHT22;5783;55.174;61.310;2023-07-13T16:52:24;26.20;46.30
11454;DHT22;5783;55.174;61.310;2023-07-13T16:54:53;26.20;46.30
11454;DHT22;5783;55.174;61.310;2023-07-13T16:57:25;26.20;46.10
11454;DHT22;5783;55.174;61.310;2023-07-13T16:59:55;26.20;46.00
11454;DHT22;5783;55.174;61.310;2023-07-13T17:03:01;26.30;46.00
11454;DHT22;5783;55.174;61.310;2023-07-13T17:04:58;26.30;46.00
11454;DHT22;5783;55.174;61.310;2023-07-13T17:07:27;26.30;44.90
11454;DHT22;5783;55.174;61.310;2023-07-13T17:09:58;26.30;44.10
11454;DHT22;5783;55.174;61.310;2023-07-13T17:12:28;26.40;43.90
11454;DHT22;5783;55.174;61.310;2023-07-13T17:14:57;26.40;43.80
11454;DHT22;5783;55.174;61.310;2023-07-13T17:17:47;26.40;43.70
11454;DHT22;5783;55.174;61.310;2023-07-13T17:23:27;26.40;43.70
11454;DHT22;5783;55.174;61.310;2023-07-13T17:25:58;26.40;43.80
11454;DHT22;5783;55.174;61.310;2023-07-13T17:28:27;26.40;43.80
11454;DHT22;5783;55.174;61.310;2023-07-13T17:30:58;26.40;44.00
11454;DHT22;5783;55.174;61.310;2023-07-13T17:33:31;26.40;43.90
11454;DHT22;5783;55.174;61.310;2023-07-13T17:36:03;26.40;44.00